sensor_id;sensor_type;location;lat;lon;timestamp;pressure;altitude;pressure_sealevel;temperature;humidity
49689;BME280;70518;51.400;7.428;2023-09-19T00:01:06;159310.31;;;20.79;100.00
49689;BME280;70518;51.400;7.428;2023-09-19T00:03:32;159377.84;;;21.05;98.91
49689;BME280;70518;51.400;7.428;2023-09-19T00:05:58;159420.72;;;21.22;95.49
49689;BME280;70518;51.400;7.428;2023-09-19T00:08:23;159435.00;;;21.27;94.63
49689;BME280;70518;51.400;7.428;2023-09-19T00:10:48;159494.72;;;21.50;93.55
49689;BME280;70518;51.400;7.428;2023-09-19T00:13:14;159440.19;;;21.29;94.64
49689;BME280;70518;51.400;7.428;2023-09-19T00:15:45;159427.22;;;21.24;95.85
49689;BME280;70518;51.400;7.428;2023-09-19T00:18:13;159433.69;;;21.27;95.14
49689;BME280;70518;51.400;7.428;2023-09-19T00:20:40;159458.38;;;21.36;93.81
49689;BME280;70518;51.400;7.428;2023-09-19T00:23:07;159481.75;;;21.45;92.82
49689;BME280;70518;51.400;7.428;2023-09-19T00:25:34;159442.78;;;21.30;94.23
49689;BME280;70518;51.400;7.428;2023-09-19T00:28:00;159411.63;;;21.18;94.08
49689;BME280;70518;51.400;7.428;2023-09-19T00:30:26;159409.06;;;21.17;93.58
49689;BME280;70518;51.400;7.428;2023-09-19T00:32:52;159396.03;;;21.12;92.12
49689;BME280;70518;51.400;7.428;2023-09-19T00:35:18;159422.03;;;21.22;92.75
49689;BME280;70518;51.400;7.428;2023-09-19T00:37:44;159411.63;;;21.18;92.09
49689;BME280;70518;51.400;7.428;2023-09-19T00:40:10;159423.34;;;21.23;92.93
49689;BME280;70518;51.400;7.428;2023-09-19T00:42:43;159419.41;;;21.21;92.22
49689;BME280;70518;51.400;7.428;2023-09-19T00:45:10;159422.03;;;21.22;91.70
49689;BME280;70518;51.400;7.428;2023-09-19T00:47:39;159394.75;;;21.12;92.42
49689;BME280;70518;51.400;7.428;2023-09-19T00:50:07;159377.84;;;21.05;92.77
49689;BME280;70518;51.400;7.428;2023-09-19T00:52:37;159379.09;;;21.05;92.57
49689;BME280;70518;51.400;7.428;2023-09-19T00:55:05;159388.25;;;21.09;92.95
49689;BME280;70518;51.400;7.428;2023-09-19T00:57:31;159368.75;;;21.01;93.04
49689;BME280;70518;51.400;7.428;2023-09-19T00:59:58;159396.03;;;21.12;90.89
49689;BME280;70518;51.400;7.428;2023-09-19T01:02:23;159394.75;;;21.12;92.79
49689;BME280;70518;51.400;7.428;2023-09-19T01:04:49;159388.25;;;21.09;91.17
49689;BME280;70518;51.400;7.428;2023-09-19T01:07:14;159364.84;;;21.00;90.31
49689;BME280;70518;51.400;7.428;2023-09-19T01:09:41;159347.94;;;20.93;90.12
49689;BME280;70518;51.400;7.428;2023-09-19T01:12:06;159349.25;;;20.94;91.03
49689;BME280;70518;51.400;7.428;2023-09-19T01:14:54;159336.28;;;20.89;92.19
49689;BME280;70518;51.400;7.428;2023-09-19T01:17:32;159315.53;;;20.81;91.59
49689;BME280;70518;51.400;7.428;2023-09-19T01:20:19;159349.25;;;20.94;90.79
49689;BME280;70518;51.400;7.428;2023-09-19T01:23:14;159334.97;;;20.88;90.58
49689;BME280;70518;51.400;7.428;2023-09-19T01:26:04;159314.22;;;20.80;91.28
49689;BME280;70518;51.400;7.428;2023-09-19T01:29:13;159340.22;;;20.90;90.89
49689;BME280;70518;51.400;7.428;2023-09-19T01:31:45;159327.19;;;20.85;91.14
49689;BME280;70518;51.400;7.428;2023-09-19T01:34:10;159338.91;;;20.90;90.05
49689;BME280;70518;51.400;7.428;2023-09-19T01:36:36;159341.47;;;20.91;89.26
49689;BME280;70518;51.400;7.428;2023-09-19T01:39:08;159359.66;;;20.98;89.09
49689;BME280;70518;51.400;7.428;2023-09-19T01:44:16;159280.47;;;20.67;90.53
49689;BME280;70518;51.400;7.428;2023-09-19T01:46:44;159267.50;;;20.62;90.93
49689;BME280;70518;51.400;7.428;2023-09-19T01:49:27;159280.47;;;20.67;90.38
49689;BME280;70518;51.400;7.428;2023-09-19T01:52:25;159288.25;;;20.70;90.06
49689;BME280;70518;51.400;7.428;2023-09-19T01:54:56;159255.84;;;20.58;90.86
49689;BME280;70518;51.400;7.428;2023-09-19T01:57:30;159275.28;;;20.65;90.79
49689;BME280;70518;51.400;7.428;2023-09-19T02:00:05;159292.16;;;20.72;90.03
49689;BME280;70518;51.400;7.428;2023-09-19T02:02:39;159268.81;;;20.63;89.59
49689;BME280;70518;51.400;7.428;2023-09-19T02:05:05;159273.97;;;20.65;90.81
49689;BME280;70518;51.400;7.428;2023-09-19T02:07:31;159294.72;;;20.73;88.95
49689;BME280;70518;51.400;7.428;2023-09-19T02:10:00;159290.84;;;20.71;88.24
49689;BME280;70518;51.400;7.428;2023-09-19T02:12:26;159290.84;;;20.71;87.97
49689;BME280;70518;51.400;7.428;2023-09-19T02:14:51;159281.75;;;20.68;88.42
49689;BME280;70518;51.400;7.428;2023-09-19T02:17:17;159235.03;;;20.49;87.88
49689;BME280;70518;51.400;7.428;2023-09-19T02:19:42;159283.06;;;20.68;89.10
49689;BME280;70518;51.400;7.428;2023-09-19T02:22:08;159244.13;;;20.53;88.06
49689;BME280;70518;51.400;7.428;2023-09-19T02:24:38;159285.69;;;20.69;86.63
49689;BME280;70518;51.400;7.428;2023-09-19T02:27:04;159258.41;;;20.59;86.76
49689;BME280;70518;51.400;7.428;2023-09-19T02:29:30;159284.38;;;20.69;84.41
49689;BME280;70518;51.400;7.428;2023-09-19T02:31:56;159307.75;;;20.78;85.72
49689;BME280;70518;51.400;7.428;2023-09-19T02:34:22;159293.47;;;20.72;84.89
49689;BME280;70518;51.400;7.428;2023-09-19T02:36:47;159358.34;;;20.97;83.99
49689;BME280;70518;51.400;7.428;2023-09-19T02:39:13;159359.66;;;20.98;83.50
49689;BME280;70518;51.400;7.428;2023-09-19T02:41:38;159249.31;;;20.55;84.95
49689;BME280;70518;51.400;7.428;2023-09-19T02:44:04;159322.03;;;20.83;84.72
49689;BME280;70518;51.400;7.428;2023-09-19T02:46:33;159349.25;;;20.94;82.74
49689;BME280;70518;51.400;7.428;2023-09-19T02:48:58;159342.78;;;20.91;83.45
49689;BME280;70518;51.400;7.428;2023-09-19T02:51:23;159296.03;;;20.73;83.64
49689;BME280;70518;51.400;7.428;2023-09-19T02:53:50;159145.47;;;20.15;87.02
49689;BME280;70518;51.400;7.428;2023-09-19T02:56:17;159081.88;;;19.90;88.27
49689;BME280;70518;51.400;7.428;2023-09-19T02:58:43;159209.09;;;20.39;86.21
49689;BME280;70518;51.400;7.428;2023-09-19T03:01:10;159229.88;;;20.47;86.31
49689;BME280;70518;51.400;7.428;2023-09-19T03:03:38;159209.09;;;20.39;86.48
49689;BME280;70518;51.400;7.428;2023-09-19T03:06:05;159100.06;;;19.97;88.55
49689;BME280;70518;51.400;7.428;2023-09-19T03:08:31;159166.22;;;20.23;87.99
49689;BME280;70518;51.400;7.428;2023-09-19T03:10:56;159151.94;;;20.17;86.92
49689;BME280;70518;51.400;7.428;2023-09-19T03:13:21;159187.06;;;20.31;86.34
49689;BME280;70518;51.400;7.428;2023-09-19T03:15:47;159164.91;;;20.22;85.17
49689;BME280;70518;51.400;7.428;2023-09-19T03:18:14;159140.28;;;20.13;84.27
49689;BME280;70518;51.400;7.428;2023-09-19T03:20:40;159116.94;;;20.04;85.32
49689;BME280;70518;51.400;7.428;2023-09-19T03:23:05;159132.50;;;20.10;84.46
49689;BME280;70518;51.400;7.428;2023-09-19T03:25:34;159146.75;;;20.15;84.32
49689;BME280;70518;51.400;7.428;2023-09-19T03:27:59;159123.41;;;20.06;83.98
49689;BME280;70518;51.400;7.428;2023-09-19T03:30:25;159127.28;;;20.08;83.97
49689;BME280;70518;51.400;7.428;2023-09-19T03:32:51;159115.63;;;20.03;84.08
49689;BME280;70518;51.400;7.428;2023-09-19T03:35:17;159103.91;;;19.98;84.95
49689;BME280;70518;51.400;7.428;2023-09-19T03:37:43;159163.66;;;20.22;83.24
49689;BME280;70518;51.400;7.428;2023-09-19T03:40:10;159210.41;;;20.40;81.42
49689;BME280;70518;51.400;7.428;2023-09-19T03:42:38;159202.63;;;20.37;82.39
49689;BME280;70518;51.400;7.428;2023-09-19T03:45:04;159216.91;;;20.42;80.60
49689;BME280;70518;51.400;7.428;2023-09-19T03:47:30;159205.19;;;20.38;79.12
49689;BME280;70518;51.400;7.428;2023-09-19T03:49:55;159193.53;;;20.33;80.16
49689;BME280;70518;51.400;7.428;2023-09-19T03:52:21;159215.59;;;20.42;78.59
49689;BME280;70518;51.400;7.428;2023-09-19T03:54:46;159210.41;;;20.40;78.35
49689;BME280;70518;51.400;7.428;2023-09-19T03:57:12;159209.09;;;20.39;78.18
49689;BME280;70518;51.400;7.428;2023-09-19T03:59:41;159242.81;;;20.52;78.13
49689;BME280;70518;51.400;7.428;2023-09-19T04:02:07;159193.53;;;20.33;79.16
49689;BME280;70518;51.400;7.428;2023-09-19T04:04:36;159179.28;;;20.28;79.34
49689;BME280;70518;51.400;7.428;2023-09-19T04:07:02;159187.06;;;20.31;79.87
49689;BME280;70518;51.400;7.428;2023-09-19T04:09:27;159163.66;;;20.22;80.59
49689;BME280;70518;51.400;7.428;2023-09-19T04:11:53;159141.59;;;20.13;78.50
49689;BME280;70518;51.400;7.428;2023-09-19T04:14:18;159150.63;;;20.17;79.22
49689;BME280;70518;51.400;7.428;2023-09-19T04:16:43;159148.06;;;20.16;79.73
49689;BME280;70518;51.400;7.428;2023-09-19T04:19:08;159146.75;;;20.15;79.67
49689;BME280;70518;51.400;7.428;2023-09-19T04:21:34;159153.25;;;20.18;79.21
49689;BME280;70518;51.400;7.428;2023-09-19T04:23:59;159129.88;;;20.09;79.41
49689;BME280;70518;51.400;7.428;2023-09-19T04:26:24;159206.50;;;20.38;77.62
49689;BME280;70518;51.400;7.428;2023-09-19T04:28:51;159167.50;;;20.23;79.56
49689;BME280;70518;51.400;7.428;2023-09-19T04:31:16;159148.06;;;20.16;79.77
49689;BME280;70518;51.400;7.428;2023-09-19T04:33:43;159149.31;;;20.16;78.84
49689;BME280;70518;51.400;7.428;2023-09-19T04:36:08;159128.59;;;20.08;79.25
49689;BME280;70518;51.400;7.428;2023-09-19T04:38:35;159164.91;;;20.22;80.07
49689;BME280;70518;51.400;7.428;2023-09-19T04:41:00;159155.88;;;20.19;79.89
49689;BME280;70518;51.400;7.428;2023-09-19T04:43:26;159205.19;;;20.38;78.30
49689;BME280;70518;51.400;7.428;2023-09-19T04:45:51;159214.28;;;20.41;78.79
49689;BME280;70518;51.400;7.428;2023-09-19T04:48:21;159216.91;;;20.42;77.19
49689;BME280;70518;51.400;7.428;2023-09-19T04:50:48;159205.19;;;20.38;77.50
49689;BME280;70518;51.400;7.428;2023-09-19T04:53:13;159227.25;;;20.46;78.08
49689;BME280;70518;51.400;7.428;2023-09-19T04:55:39;159201.31;;;20.36;78.92
49689;BME280;70518;51.400;7.428;2023-09-19T04:58:04;159066.31;;;19.84;81.83
49689;BME280;70518;51.400;7.428;2023-09-19T05:00:29;158996.28;;;19.57;83.39
49689;BME280;70518;51.400;7.428;2023-09-19T05:02:56;159109.16;;;20.01;80.36
49689;BME280;70518;51.400;7.428;2023-09-19T05:05:22;159083.19;;;19.90;81.42
49689;BME280;70518;51.400;7.428;2023-09-19T05:07:49;159081.88;;;19.90;80.91
49689;BME280;70518;51.400;7.428;2023-09-19T05:10:15;159100.06;;;19.97;80.63
49689;BME280;70518;51.400;7.428;2023-09-19T05:12:41;159096.13;;;19.95;79.11
49689;BME280;70518;51.400;7.428;2023-09-19T05:15:07;159062.44;;;19.82;79.41
49689;BME280;70518;51.400;7.428;2023-09-19T05:17:34;159026.13;;;19.68;82.42
49689;BME280;70518;51.400;7.428;2023-09-19T05:20:00;158996.28;;;19.57;83.32
49689;BME280;70518;51.400;7.428;2023-09-19T05:22:50;158974.19;;;19.48;84.58
49689;BME280;70518;51.400;7.428;2023-09-19T05:25:22;158970.34;;;19.47;83.96
49689;BME280;70518;51.400;7.428;2023-09-19T05:27:47;158992.38;;;19.55;83.56
49689;BME280;70518;51.400;7.428;2023-09-19T05:30:12;158998.84;;;19.58;82.71
49689;BME280;70518;51.400;7.428;2023-09-19T05:32:40;159009.25;;;19.62;83.25
49689;BME280;70518;51.400;7.428;2023-09-19T05:35:05;159005.34;;;19.60;82.58
49689;BME280;70518;51.400;7.428;2023-09-19T05:37:34;159009.25;;;19.62;82.74
49689;BME280;70518;51.400;7.428;2023-09-19T05:39:59;159024.81;;;19.68;80.99
49689;BME280;70518;51.400;7.428;2023-09-19T05:42:25;159050.72;;;19.78;81.82
49689;BME280;70518;51.400;7.428;2023-09-19T05:44:50;159011.84;;;19.63;82.52
49689;BME280;70518;51.400;7.428;2023-09-19T05:47:16;159087.09;;;19.92;81.81
49689;BME280;70518;51.400;7.428;2023-09-19T05:49:41;159103.91;;;19.98;81.16
49689;BME280;70518;51.400;7.428;2023-09-19T05:52:07;159071.53;;;19.86;82.44
49689;BME280;70518;51.400;7.428;2023-09-19T05:54:32;159123.41;;;20.06;81.54
49689;BME280;70518;51.400;7.428;2023-09-19T05:56:59;159126.03;;;20.07;80.66
49689;BME280;70518;51.400;7.428;2023-09-19T05:59:24;159135.06;;;20.11;80.50
49689;BME280;70518;51.400;7.428;2023-09-19T06:01:50;159080.56;;;19.89;81.02
49689;BME280;70518;51.400;7.428;2023-09-19T06:04:17;159107.84;;;20.00;80.79
49689;BME280;70518;51.400;7.428;2023-09-19T06:06:44;159072.81;;;19.86;81.70
49689;BME280;70518;51.400;7.428;2023-09-19T06:09:09;159063.75;;;19.83;80.33
49689;BME280;70518;51.400;7.428;2023-09-19T06:11:35;159100.06;;;19.97;80.60
49689;BME280;70518;51.400;7.428;2023-09-19T06:14:01;159030.00;;;19.70;82.92
49689;BME280;70518;51.400;7.428;2023-09-19T06:16:28;158969.03;;;19.46;82.81
49689;BME280;70518;51.400;7.428;2023-09-19T06:18:54;159013.13;;;19.63;83.53
49689;BME280;70518;51.400;7.428;2023-09-19T06:21:24;158985.91;;;19.53;83.53
49689;BME280;70518;51.400;7.428;2023-09-19T06:23:49;158969.03;;;19.46;83.19
49689;BME280;70518;51.400;7.428;2023-09-19T06:26:14;159001.47;;;19.59;82.36
49689;BME280;70518;51.400;7.428;2023-09-19T06:28:40;159022.19;;;19.67;82.89
49689;BME280;70518;51.400;7.428;2023-09-19T06:31:05;158957.38;;;19.42;83.31
49689;BME280;70518;51.400;7.428;2023-09-19T06:33:37;158954.75;;;19.40;83.51
49689;BME280;70518;51.400;7.428;2023-09-19T06:36:07;158932.69;;;19.32;84.21
49689;BME280;70518;51.400;7.428;2023-09-19T06:38:33;159000.16;;;19.58;82.74
49689;BME280;70518;51.400;7.428;2023-09-19T06:41:01;158953.47;;;19.40;81.26
49689;BME280;70518;51.400;7.428;2023-09-19T06:43:29;158972.94;;;19.48;80.57
49689;BME280;70518;51.400;7.428;2023-09-19T06:45:56;158954.75;;;19.40;80.64
49689;BME280;70518;51.400;7.428;2023-09-19T06:48:21;158985.91;;;19.53;79.52
49689;BME280;70518;51.400;7.428;2023-09-19T06:50:46;158937.84;;;19.34;80.49
49689;BME280;70518;51.400;7.428;2023-09-19T06:53:13;158870.41;;;19.08;81.78
49689;BME280;70518;51.400;7.428;2023-09-19T06:55:39;158841.91;;;18.97;82.83
49689;BME280;70518;51.400;7.428;2023-09-19T06:58:04;158832.81;;;18.93;83.06
49689;BME280;70518;51.400;7.428;2023-09-19T07:00:31;158790.06;;;18.76;83.73
49689;BME280;70518;51.400;7.428;2023-09-19T07:03:03;158810.78;;;18.84;83.20
49689;BME280;70518;51.400;7.428;2023-09-19T07:05:33;158777.06;;;18.71;84.40
49689;BME280;70518;51.400;7.428;2023-09-19T07:08:01;158792.63;;;18.77;84.14
49689;BME280;70518;51.400;7.428;2023-09-19T07:10:27;158761.50;;;18.65;84.75
49689;BME280;70518;51.400;7.428;2023-09-19T07:12:57;158749.84;;;18.61;85.32
49689;BME280;70518;51.400;7.428;2023-09-19T07:15:26;158744.69;;;18.59;85.78
49689;BME280;70518;51.400;7.428;2023-09-19T07:17:52;158716.06;;;18.48;85.96
49689;BME280;70518;51.400;7.428;2023-09-19T07:20:19;158718.75;;;18.49;86.64
49689;BME280;70518;51.400;7.428;2023-09-19T07:22:44;158718.75;;;18.49;87.15
49689;BME280;70518;51.400;7.428;2023-09-19T07:25:09;158717.38;;;18.48;87.31
49689;BME280;70518;51.400;7.428;2023-09-19T07:27:35;158745.94;;;18.59;86.80
49689;BME280;70518;51.400;7.428;2023-09-19T07:30:00;158727.81;;;18.52;87.64
49689;BME280;70518;51.400;7.428;2023-09-19T07:32:25;158695.34;;;18.40;88.43
49689;BME280;70518;51.400;7.428;2023-09-19T07:34:51;158708.28;;;18.45;88.26
49689;BME280;70518;51.400;7.428;2023-09-19T07:37:16;158734.28;;;18.55;88.33
49689;BME280;70518;51.400;7.428;2023-09-19T07:39:42;158734.28;;;18.55;87.43
49689;BME280;70518;51.400;7.428;2023-09-19T07:42:08;158726.50;;;18.52;87.97
49689;BME280;70518;51.400;7.428;2023-09-19T07:44:35;158712.22;;;18.46;88.97
49689;BME280;70518;51.400;7.428;2023-09-19T07:47:01;158727.81;;;18.52;88.33
49689;BME280;70518;51.400;7.428;2023-09-19T07:49:28;158780.97;;;18.73;87.26
49689;BME280;70518;51.400;7.428;2023-09-19T07:51:53;158766.72;;;18.67;87.51
49689;BME280;70518;51.400;7.428;2023-09-19T07:54:19;158743.38;;;18.58;88.96
49689;BME280;70518;51.400;7.428;2023-09-19T07:56:45;158738.16;;;18.56;88.68
49689;BME280;70518;51.400;7.428;2023-09-19T07:59:11;158729.13;;;18.53;89.02
49689;BME280;70518;51.400;7.428;2023-09-19T08:01:36;158725.22;;;18.51;88.92
49689;BME280;70518;51.400;7.428;2023-09-19T08:04:02;158726.50;;;18.52;89.22
49689;BME280;70518;51.400;7.428;2023-09-19T08:06:27;158730.38;;;18.53;89.64
49689;BME280;70518;51.400;7.428;2023-09-19T08:08:55;158742.06;;;18.58;89.33
49689;BME280;70518;51.400;7.428;2023-09-19T08:11:20;158723.91;;;18.51;88.38
49689;BME280;70518;51.400;7.428;2023-09-19T08:13:46;158734.28;;;18.55;88.04
49689;BME280;70518;51.400;7.428;2023-09-19T08:16:14;158766.72;;;18.67;88.10
49689;BME280;70518;51.400;7.428;2023-09-19T08:18:40;158765.41;;;18.67;88.80
49689;BME280;70518;51.400;7.428;2023-09-19T08:21:06;158775.75;;;18.71;87.80
49689;BME280;70518;51.400;7.428;2023-09-19T08:23:38;158792.63;;;18.77;87.40
49689;BME280;70518;51.400;7.428;2023-09-19T08:26:04;158828.91;;;18.92;86.83
49689;BME280;70518;51.400;7.428;2023-09-19T08:28:32;158836.69;;;18.95;86.08
49689;BME280;70518;51.400;7.428;2023-09-19T08:31:03;158847.06;;;18.99;86.09
49689;BME280;70518;51.400;7.428;2023-09-19T08:33:31;158818.56;;;18.88;87.18
49689;BME280;70518;51.400;7.428;2023-09-19T08:35:56;158839.28;;;18.96;86.77
49689;BME280;70518;51.400;7.428;2023-09-19T08:38:21;158836.69;;;18.95;89.10
49689;BME280;70518;51.400;7.428;2023-09-19T08:40:47;158832.81;;;18.93;90.59
49689;BME280;70518;51.400;7.428;2023-09-19T08:43:12;158822.44;;;18.89;87.83
49689;BME280;70518;51.400;7.428;2023-09-19T08:45:38;158849.69;;;19.00;86.82
49689;BME280;70518;51.400;7.428;2023-09-19T08:48:24;158843.22;;;18.97;86.62
49689;BME280;70518;51.400;7.428;2023-09-19T08:53:41;158847.06;;;18.99;85.98
49689;BME280;70518;51.400;7.428;2023-09-19T08:56:09;158839.28;;;18.96;86.03
49689;BME280;70518;51.400;7.428;2023-09-19T08:58:43;158832.81;;;18.93;85.76
49689;BME280;70518;51.400;7.428;2023-09-19T09:01:09;158843.22;;;18.97;85.58
49689;BME280;70518;51.400;7.428;2023-09-19T09:03:37;158843.22;;;18.97;86.16
49689;BME280;70518;51.400;7.428;2023-09-19T09:06:07;158856.16;;;19.02;86.05
49689;BME280;70518;51.400;7.428;2023-09-19T09:08:33;158876.91;;;19.10;85.75
49689;BME280;70518;51.400;7.428;2023-09-19T09:10:58;158896.38;;;19.18;84.53
49689;BME280;70518;51.400;7.428;2023-09-19T09:13:24;158952.16;;;19.39;83.14
49689;BME280;70518;51.400;7.428;2023-09-19T09:15:51;158901.53;;;19.20;83.97
49689;BME280;70518;51.400;7.428;2023-09-19T09:18:17;158928.75;;;19.30;88.20
49689;BME280;70518;51.400;7.428;2023-09-19T09:20:43;158919.72;;;19.27;89.19
49689;BME280;70518;51.400;7.428;2023-09-19T09:23:09;158966.41;;;19.45;90.78
49689;BME280;70518;51.400;7.428;2023-09-19T09:25:52;159002.78;;;19.59;87.95
49689;BME280;70518;51.400;7.428;2023-09-19T09:28:33;159036.47;;;19.72;86.62
49689;BME280;70518;51.400;7.428;2023-09-19T09:31:00;159068.91;;;19.85;86.18
49689;BME280;70518;51.400;7.428;2023-09-19T09:33:28;159083.19;;;19.90;85.15
49689;BME280;70518;51.400;7.428;2023-09-19T09:36:02;159114.31;;;20.03;85.11
49689;BME280;70518;51.400;7.428;2023-09-19T09:38:30;159129.88;;;20.09;85.27
49689;BME280;70518;51.400;7.428;2023-09-19T09:41:09;159163.66;;;20.22;83.17
49689;BME280;70518;51.400;7.428;2023-09-19T09:43:39;159193.53;;;20.33;83.38
49689;BME280;70518;51.400;7.428;2023-09-19T09:46:15;159219.47;;;20.43;83.04
49689;BME280;70518;51.400;7.428;2023-09-19T09:48:44;159254.53;;;20.57;81.13
49689;BME280;70518;51.400;7.428;2023-09-19T09:51:29;159320.72;;;20.83;78.30
49689;BME280;70518;51.400;7.428;2023-09-19T09:54:09;159388.25;;;21.09;76.61
49689;BME280;70518;51.400;7.428;2023-09-19T09:56:51;159350.56;;;20.94;76.53
49689;BME280;70518;51.400;7.428;2023-09-19T09:59:17;159357.03;;;20.97;75.15
49689;BME280;70518;51.400;7.428;2023-09-19T10:01:47;159477.88;;;21.44;71.99
49689;BME280;70518;51.400;7.428;2023-09-19T10:04:27;159390.88;;;21.10;73.26
49689;BME280;70518;51.400;7.428;2023-09-19T10:06:55;159402.53;;;21.15;71.13
49689;BME280;70518;51.400;7.428;2023-09-19T10:09:20;159393.47;;;21.11;72.57
49689;BME280;70518;51.400;7.428;2023-09-19T10:12:02;159457.06;;;21.36;72.03
49689;BME280;70518;51.400;7.428;2023-09-19T10:14:30;159497.34;;;21.51;71.43
49689;BME280;70518;51.400;7.428;2023-09-19T10:17:00;159464.88;;;21.39;70.22
49689;BME280;70518;51.400;7.428;2023-09-19T10:19:36;159540.16;;;21.68;69.03
49689;BME280;70518;51.400;7.428;2023-09-19T10:22:04;159501.22;;;21.53;68.59
49689;BME280;70518;51.400;7.428;2023-09-19T10:24:33;159510.31;;;21.56;67.97
49689;BME280;70518;51.400;7.428;2023-09-19T10:27:00;159511.63;;;21.57;67.44
49689;BME280;70518;51.400;7.428;2023-09-19T10:29:28;159520.72;;;21.60;66.71
49689;BME280;70518;51.400;7.428;2023-09-19T10:31:58;159501.22;;;21.53;66.62
49689;BME280;70518;51.400;7.428;2023-09-19T10:34:25;159538.91;;;21.68;66.39
49689;BME280;70518;51.400;7.428;2023-09-19T10:36:51;159506.44;;;21.55;64.70
49689;BME280;70518;51.400;7.428;2023-09-19T10:39:16;159494.72;;;21.50;65.39
49689;BME280;70518;51.400;7.428;2023-09-19T10:41:53;159512.91;;;21.57;63.24
49689;BME280;70518;51.400;7.428;2023-09-19T10:44:25;159496.03;;;21.51;64.13
49689;BME280;70518;51.400;7.428;2023-09-19T10:46:54;159489.53;;;21.48;63.64
49689;BME280;70518;51.400;7.428;2023-09-19T10:49:20;159523.31;;;21.62;62.67
49689;BME280;70518;51.400;7.428;2023-09-19T10:51:47;159449.28;;;21.33;63.25
49689;BME280;70518;51.400;7.428;2023-09-19T10:54:17;159502.50;;;21.53;61.49
49689;BME280;70518;51.400;7.428;2023-09-19T10:56:49;159515.53;;;21.58;62.25
49689;BME280;70518;51.400;7.428;2023-09-19T10:59:17;159523.31;;;21.62;61.79
49689;BME280;70518;51.400;7.428;2023-09-19T11:01:51;159541.47;;;21.69;61.07
49689;BME280;70518;51.400;7.428;2023-09-19T11:07:06;159554.44;;;21.74;60.03
49689;BME280;70518;51.400;7.428;2023-09-19T11:09:52;159614.28;;;21.97;58.77
49689;BME280;70518;51.400;7.428;2023-09-19T11:14:56;159576.56;;;21.82;59.05
49689;BME280;70518;51.400;7.428;2023-09-19T11:17:41;159555.75;;;21.74;58.45
49689;BME280;70518;51.400;7.428;2023-09-19T11:30:51;159636.38;;;22.05;58.83
49689;BME280;70518;51.400;7.428;2023-09-19T11:33:31;159637.66;;;22.06;58.32
49689;BME280;70518;51.400;7.428;2023-09-19T11:43:46;159547.97;;;21.71;57.54
49689;BME280;70518;51.400;7.428;2023-09-19T11:46:11;159648.03;;;22.10;55.79
49689;BME280;70518;51.400;7.428;2023-09-19T11:48:38;159583.06;;;21.85;57.10
49689;BME280;70518;51.400;7.428;2023-09-19T11:51:17;159583.06;;;21.85;57.87
49689;BME280;70518;51.400;7.428;2023-09-19T11:53:50;159611.66;;;21.96;58.48
49689;BME280;70518;51.400;7.428;2023-09-19T11:56:17;159522.03;;;21.61;59.54
49689;BME280;70518;51.400;7.428;2023-09-19T11:58:44;159398.66;;;21.13;61.61
49689;BME280;70518;51.400;7.428;2023-09-19T12:01:13;159509.00;;;21.56;60.39
49689;BME280;70518;51.400;7.428;2023-09-19T12:03:42;159597.38;;;21.90;59.69
49689;BME280;70518;51.400;7.428;2023-09-19T12:06:11;159687.00;;;22.25;58.40
49689;BME280;70518;51.400;7.428;2023-09-19T12:08:40;159633.75;;;22.04;58.02
49689;BME280;70518;51.400;7.428;2023-09-19T12:11:11;159623.34;;;22.00;57.71
49689;BME280;70518;51.400;7.428;2023-09-19T12:13:41;159658.44;;;22.14;57.49
49689;BME280;70518;51.400;7.428;2023-09-19T12:16:18;159640.22;;;22.07;56.66
49689;BME280;70518;51.400;7.428;2023-09-19T12:18:47;159676.66;;;22.21;56.90
49689;BME280;70518;51.400;7.428;2023-09-19T12:21:31;159616.84;;;21.98;57.43
49689;BME280;70518;51.400;7.428;2023-09-19T12:26:41;159653.25;;;22.12;56.59
49689;BME280;70518;51.400;7.428;2023-09-19T12:29:12;159677.91;;;22.22;56.85
49689;BME280;70518;51.400;7.428;2023-09-19T12:31:47;159674.03;;;22.20;54.91
49689;BME280;70518;51.400;7.428;2023-09-19T12:34:19;159727.28;;;22.41;54.00
49689;BME280;70518;51.400;7.428;2023-09-19T12:36:45;159737.72;;;22.45;54.02
49689;BME280;70518;51.400;7.428;2023-09-19T12:39:11;159619.47;;;21.99;55.45
49689;BME280;70518;51.400;7.428;2023-09-19T12:41:37;159718.19;;;22.37;54.55
49689;BME280;70518;51.400;7.428;2023-09-19T12:44:04;159746.75;;;22.48;53.64
49689;BME280;70518;51.400;7.428;2023-09-19T12:46:34;159757.16;;;22.52;52.50
49689;BME280;70518;51.400;7.428;2023-09-19T12:49:19;159815.69;;;22.75;51.94
49689;BME280;70518;51.400;7.428;2023-09-19T12:51:48;159863.78;;;22.94;51.53
49689;BME280;70518;51.400;7.428;2023-09-19T12:54:14;159878.06;;;22.99;51.46
49689;BME280;70518;51.400;7.428;2023-09-19T12:56:45;159784.44;;;22.63;52.52
49689;BME280;70518;51.400;7.428;2023-09-19T12:59:13;159798.81;;;22.68;51.28
49689;BME280;70518;51.400;7.428;2023-09-19T13:01:40;159855.97;;;22.91;51.09
49689;BME280;70518;51.400;7.428;2023-09-19T13:04:19;159883.25;;;23.01;50.33
49689;BME280;70518;51.400;7.428;2023-09-19T13:09:12;159905.38;;;23.10;50.98
49689;BME280;70518;51.400;7.428;2023-09-19T13:11:39;159957.38;;;23.30;49.66
49689;BME280;70518;51.400;7.428;2023-09-19T13:22:44;159970.34;;;23.35;49.67
49689;BME280;70518;51.400;7.428;2023-09-19T13:25:16;159988.63;;;23.42;47.33
49689;BME280;70518;51.400;7.428;2023-09-19T13:27:55;159976.84;;;23.38;47.42
49689;BME280;70518;51.400;7.428;2023-09-19T13:30:28;160002.91;;;23.48;46.89
49689;BME280;70518;51.400;7.428;2023-09-19T13:35:35;160027.63;;;23.57;47.25
49689;BME280;70518;51.400;7.428;2023-09-19T13:38:00;160040.59;;;23.62;46.65
49689;BME280;70518;51.400;7.428;2023-09-19T13:40:26;160039.31;;;23.62;47.02
49689;BME280;70518;51.400;7.428;2023-09-19T13:42:55;160064.00;;;23.71;46.48